Time;durP1;ratioP1;P1;durP2;ratioP2;P2;SDS_P1;SDS_P2;PMS_P1;PMS_P2;Temp;Humidity;BMP_temperature;BMP_pressure;BME280_temperature;BME280_humidity;BME280_pressure;Samples;Min_cycle;Max_cycle;Signal;HPM_P1;HPM_P2
2023/09/02 00:00:40;;;;;;;9.25;2.45;;;;;;;19.08;57.50;100046.12;7711232;32;39841;-79
2023/09/02 00:04:56;;;;;;;4.62;2.47;;;;;;;19.17;57.21;100044.19;7711304;32;38717;-79
2023/09/02 00:09:13;;;;;;;4.97;2.60;;;;;;;19.07;57.72;100048.06;7711298;32;37909;-79
2023/09/02 00:13:29;;;;;;;6.97;2.72;;;;;;;19.00;58.16;100039.44;7711221;32;39956;-80
2023/09/02 00:17:47;;;;;;;5.25;2.72;;;;;;;19.07;57.96;100042.53;7711226;32;39626;-79
2023/09/02 00:22:03;;;;;;;6.78;2.70;;;;;;;18.92;58.53;100043.00;7708535;32;37949;-79
2023/09/02 00:26:20;;;;;;;3.85;2.40;;;;;;;18.95;58.44;100042.34;7710830;32;37831;-79
2023/09/02 00:30:36;;;;;;;5.68;2.55;;;;;;;19.09;57.94;100031.16;7710797;32;40056;-79
2023/09/02 00:34:52;;;;;;;5.28;2.53;;;;;;;19.08;58.39;100035.88;7689072;32;40001;-79
2023/09/02 00:39:08;;;;;;;3.40;2.37;;;;;;;19.16;58.50;100031.50;7684156;32;38657;-79
2023/09/02 00:43:25;;;;;;;4.28;2.78;;;;;;;19.32;58.09;100026.31;7684151;32;37227;-79
2023/09/02 00:47:41;;;;;;;3.70;2.33;;;;;;;19.37;58.19;100025.31;7695346;32;40507;-80
2023/09/02 00:51:58;;;;;;;5.12;2.80;;;;;;;19.25;58.63;100034.28;7683890;32;40861;-79
2023/09/02 00:56:15;;;;;;;5.47;2.67;;;;;;;19.14;59.04;100033.78;7683832;32;38756;-80
2023/09/02 01:00:31;;;;;;;4.82;2.30;;;;;;;19.09;59.16;100034.75;7683758;32;36896;-79
2023/09/02 01:04:48;;;;;;;4.07;2.80;;;;;;;19.08;59.10;100037.84;7682506;32;39312;-79
2023/09/02 01:09:04;;;;;;;3.67;2.72;;;;;;;19.01;59.00;100040.28;7685080;32;40940;-78
2023/09/02 01:13:20;;;;;;;4.68;2.60;;;;;;;18.96;59.22;100035.72;7685244;32;38045;-79
2023/09/02 01:17:37;;;;;;;3.72;2.47;;;;;;;19.03;59.29;100044.31;7685444;32;37796;-79
2023/09/02 01:22:00;;;;;;;4.93;2.60;;;;;;;19.09;58.77;100043.03;7687329;32;40131;-79
2023/09/02 01:26:53;;;;;;;2.90;2.40;;;;;;;18.96;59.14;100052.28;7686400;32;40100;-79
2023/09/02 01:31:12;;;;;;;;;;;;;;;19.25;58.54;100050.87;7686856;32;38702;-79
2023/09/02 01:35:32;;;;;;;5.00;3.25;;;;;;;19.22;58.64;100048.75;7686536;32;37639;-79
2023/09/02 01:39:50;;;;;;;4.22;2.50;;;;;;;18.93;59.40;100058.44;7685331;32;39218;-79
2023/09/02 01:44:07;;;;;;;4.20;2.72;;;;;;;19.07;58.86;100053.59;7686297;32;39959;-79
2023/09/02 01:48:26;;;;;;;5.12;2.62;;;;;;;18.72;60.01;100055.44;7686206;32;38006;-80
2023/09/02 01:52:43;;;;;;;5.60;3.28;;;;;;;18.76;59.80;100057.25;7700057;32;36080;-80
2023/09/02 01:57:00;;;;;;;5.97;2.80;;;;;;;18.69;59.77;100056.88;7712481;32;40057;-79
2023/09/02 02:01:16;;;;;;;5.15;2.60;;;;;;;18.94;59.00;100058.13;7711940;32;40990;-79
2023/09/02 02:05:42;;;;;;;8.65;2.72;;;;;;;18.87;59.43;100060.56;7711462;32;37935;-79
2023/09/02 02:10:01;;;;;;;4.20;2.72;;;;;;;18.87;59.79;100057.78;7687403;32;37023;-79
2023/09/02 02:14:17;;;;;;;6.45;3.08;;;;;;;18.85;60.25;100062.00;7685933;32;39329;-79
2023/09/02 02:18:33;;;;;;;5.57;3.00;;;;;;;18.98;60.36;100063.00;7685918;32;40737;-79
2023/09/02 02:22:50;;;;;;;6.07;2.80;;;;;;;18.91;60.55;100058.75;7685261;32;37962;-79
2023/09/02 02:27:06;;;;;;;5.72;2.80;;;;;;;18.92;60.69;100054.88;7685786;32;36815;-79
2023/09/02 02:31:22;;;;;;;6.57;3.03;;;;;;;18.82;60.89;100059.88;7685821;32;39439;-79
2023/09/02 02:35:39;;;;;;;4.62;3.03;;;;;;;19.01;60.20;100063.19;7685763;32;39978;-79
2023/09/02 02:39:55;;;;;;;6.18;2.90;;;;;;;18.98;60.09;100057.50;7685527;32;37870;-79
2023/09/02 02:44:12;;;;;;;6.78;2.92;;;;;;;18.89;60.47;100060.22;7684416;32;37273;-79
2023/09/02 02:48:30;;;;;;;4.80;3.15;;;;;;;18.88;60.73;100061.34;7685569;32;39543;-79
2023/09/02 02:52:46;;;;;;;6.03;3.15;;;;;;;18.74;61.36;100059.50;7703751;32;40880;-78
2023/09/02 02:57:02;;;;;;;5.53;3.10;;;;;;;18.77;61.48;100061.63;7692891;32;38037;-79
2023/09/02 03:01:19;;;;;;;6.93;3.10;;;;;;;18.94;60.72;100065.59;7685438;32;37025;-79
2023/09/02 03:05:37;;;;;;;7.57;3.20;;;;;;;18.84;61.03;100057.63;7685466;32;39129;-79
2023/09/02 03:09:54;;;;;;;5.80;3.20;;;;;;;18.88;61.12;100058.59;7685314;32;42079;-79
2023/09/02 03:14:10;;;;;;;5.90;3.33;;;;;;;19.00;60.93;100057.97;7685475;32;38699;-79
2023/09/02 03:18:26;;;;;;;6.80;3.05;;;;;;;18.75;61.76;100055.59;7685299;32;37187;-79
2023/09/02 03:22:43;;;;;;;5.78;3.40;;;;;;;18.71;61.96;100059.31;7685067;32;40069;-79
2023/09/02 03:27:03;;;;;;;6.25;2.90;;;;;;;18.69;61.88;100059.62;7685103;32;40241;-79
2023/09/02 03:31:19;;;;;;;4.70;3.20;;;;;;;18.93;60.94;100058.44;7683066;32;37748;-79
2023/09/02 03:35:39;;;;;;;4.97;2.87;;;;;;;18.85;61.08;100062.00;7685020;32;37836;-79
2023/09/02 03:39:56;;;;;;;5.70;3.22;;;;;;;18.58;61.82;100061.88;7692358;32;39219;-79
2023/09/02 03:44:12;;;;;;;5.53;2.85;;;;;;;18.58;61.60;100061.06;7711589;32;40916;-80
2023/09/02 03:48:28;;;;;;;5.65;3.17;;;;;;;18.62;61.29;100062.06;7711445;32;38136;-79
2023/09/02 03:52:45;;;;;;;4.68;2.95;;;;;;;18.64;61.10;100061.72;7711618;32;37809;-79
2023/09/02 03:57:02;;;;;;;6.07;3.08;;;;;;;18.81;60.16;100053.50;7711436;32;40078;-79
2023/09/02 04:01:18;;;;;;;7.47;3.10;;;;;;;18.88;59.91;100058.59;7705406;32;40042;-79
2023/09/02 04:05:35;;;;;;;5.90;3.05;;;;;;;18.60;60.76;100063.50;7684643;32;37933;-79
2023/09/02 04:09:51;;;;;;;5.25;3.10;;;;;;;18.85;60.08;100059.22;7684715;32;37088;-79
2023/09/02 04:14:08;;;;;;;5.57;3.20;;;;;;;18.66;60.74;100063.06;7684590;32;40092;-79
2023/09/02 04:18:25;;;;;;;5.82;2.80;;;;;;;18.42;61.48;100073.66;7684578;32;40857;-79
2023/09/02 04:22:41;;;;;;;7.30;3.50;;;;;;;18.67;60.47;100070.19;7684508;32;38562;-78
2023/09/02 04:26:59;;;;;;;8.05;3.15;;;;;;;18.71;60.42;100070.38;7684408;32;37023;-78
2023/09/02 04:45:53;;;;;;;6.10;2.92;;;;;;;18.71;62.27;100085.00;7804922;32;262735;-80
2023/09/02 04:50:09;;;;;;;5.47;3.20;;;;;;;19.07;60.97;100094.22;7784347;32;40523;-78
2023/09/02 04:54:26;;;;;;;6.32;3.30;;;;;;;19.32;60.20;100090.69;7785139;32;38439;-77
2023/09/02 04:58:42;;;;;;;7.20;3.78;;;;;;;19.34;60.31;100093.16;7785309;32;36718;-78
2023/09/02 05:03:00;;;;;;;4.93;3.30;;;;;;;19.44;60.16;100092.84;7768234;32;39085;-77
2023/09/02 05:07:16;;;;;;;7.62;3.60;;;;;;;19.43;60.73;100085.66;7766443;32;38821;-77
2023/09/02 05:11:33;;;;;;;7.68;3.80;;;;;;;19.22;62.13;100092.97;7784863;32;37932;-77
2023/09/02 05:15:52;;;;;;;5.35;3.40;;;;;;;19.33;61.91;100086.81;7784940;32;36854;-77
2023/09/02 05:20:09;;;;;;;4.95;3.35;;;;;;;19.51;61.19;100084.87;7784983;32;39870;-77
2023/09/02 05:24:25;;;;;;;10.25;3.30;;;;;;;19.56;60.87;100094.13;7775081;32;39961;-77
2023/09/02 05:28:41;;;;;;;6.18;3.25;;;;;;;19.50;60.97;100097.03;7784360;32;38871;-77
2023/09/02 05:32:58;;;;;;;7.57;3.62;;;;;;;19.45;61.34;100088.91;7775241;32;36638;-78
2023/09/02 05:37:14;;;;;;;11.32;3.80;;;;;;;19.45;61.41;100088.91;7757650;32;38973;-77
2023/09/02 05:41:30;;;;;;;8.23;3.28;;;;;;;19.71;60.65;100090.88;7757441;32;40265;-77
2023/09/02 05:45:47;;;;;;;6.40;3.25;;;;;;;19.20;62.43;100089.72;7744228;32;38019;-80
2023/09/02 05:50:04;;;;;;;5.57;2.90;;;;;;;19.57;61.56;100090.22;7739463;32;36994;-79
2023/09/02 05:54:20;;;;;;;7.05;3.35;;;;;;;19.91;60.73;100094.16;7739395;32;39619;-79
2023/09/02 05:58:36;;;;;;;5.35;3.25;;;;;;;20.00;60.44;100095.75;7739355;32;39799;-80
2023/09/02 06:02:52;;;;;;;5.72;3.12;;;;;;;19.75;60.49;100100.19;7739713;32;38008;-79
2023/09/02 06:07:09;;;;;;;6.60;3.03;;;;;;;20.05;59.13;100097.56;7739260;32;37620;-79
2023/09/02 06:11:25;;;;;;;7.95;3.20;;;;;;;20.13;58.91;100096.72;7739216;32;39906;-79
2023/09/02 06:15:41;;;;;;;5.12;2.95;;;;;;;20.40;58.40;100094.69;7742049;32;40073;-78
2023/09/02 06:19:59;;;;;;;6.82;3.15;;;;;;;20.73;57.67;100102.41;7756529;32;38257;-79
2023/09/02 06:24:15;;;;;;;4.40;2.50;;;;;;;20.98;57.03;100103.44;7739031;32;37020;-79
2023/09/02 06:28:33;;;;;;;5.53;3.12;;;;;;;20.98;57.45;100107.03;7739131;32;40219;-78
2023/09/02 06:32:49;;;;;;;5.72;3.20;;;;;;;21.26;57.40;100111.28;7738852;32;40840;-79
2023/09/02 06:37:06;;;;;;;5.95;3.20;;;;;;;21.48;57.05;100110.19;7738875;32;37689;-80
2023/09/02 06:41:22;;;;;;;4.70;3.03;;;;;;;21.29;57.51;100119.72;7738939;32;36664;-81
2023/09/02 06:45:38;;;;;;;5.68;2.97;;;;;;;20.30;59.93;100122.72;7738841;32;39125;-80
2023/09/02 06:49:55;;;;;;;7.37;3.55;;;;;;;20.77;58.80;100125.56;7738761;32;40814;-79
2023/09/02 06:54:11;;;;;;;5.30;2.97;;;;;;;21.36;57.90;100124.75;7738624;32;38002;-76
2023/09/02 06:58:27;;;;;;;6.53;3.17;;;;;;;21.40;57.21;100134.00;7737851;32;37682;-81
2023/09/02 07:02:44;;;;;;;5.20;2.90;;;;;;;21.29;56.34;100136.38;7738755;32;39599;-74
2023/09/02 07:07:00;;;;;;;5.75;3.08;;;;;;;21.46;56.37;100123.56;7738513;32;39755;-74
2023/09/02 07:11:16;;;;;;;4.60;2.70;;;;;;;21.86;54.88;100117.56;7738462;32;38048;-75
2023/09/02 07:15:35;;;;;;;8.05;3.12;;;;;;;21.92;55.53;100118.94;7738546;32;36987;-72
2023/09/02 07:19:51;;;;;;;5.40;3.17;;;;;;;22.08;55.06;100116.38;7738559;32;38170;-74
2023/09/02 07:24:09;;;;;;;3.90;2.60;;;;;;;21.88;55.89;100118.03;7738372;32;39969;-74
2023/09/02 07:28:26;;;;;;;6.43;2.75;;;;;;;22.28;55.33;100125.81;7738340;32;36809;-76
2023/09/02 07:32:42;;;;;;;4.90;2.80;;;;;;;22.37;54.40;100132.13;7738299;32;36887;-88
2023/09/02 07:36:59;;;;;;;5.57;2.72;;;;;;;22.42;53.13;100125.50;7738260;32;39934;-87
2023/09/02 07:41:15;;;;;;;6.00;2.72;;;;;;;22.66;53.09;100113.62;7738276;32;39991;-87
2023/09/02 07:45:31;;;;;;;5.70;2.85;;;;;;;22.88;51.94;100115.16;7738047;32;38028;-87
2023/09/02 07:49:48;;;;;;;5.55;2.78;;;;;;;22.89;52.07;100119.56;7738120;32;37624;-87
2023/09/02 07:54:04;;;;;;;4.80;2.22;;;;;;;23.25;51.73;100112.41;7737967;32;39700;-87
2023/09/02 07:58:20;;;;;;;7.68;2.72;;;;;;;23.73;51.40;100116.25;7737854;32;40149;-88
2023/09/02 08:02:36;;;;;;;4.45;2.30;;;;;;;23.99;51.77;100114.97;7737737;32;38611;-87
2023/09/02 08:06:53;;;;;;;4.75;2.67;;;;;;;24.33;49.54;100116.31;7737437;32;36813;-86
2023/09/02 08:11:11;;;;;;;7.60;2.97;;;;;;;24.49;50.29;100123.91;7737615;32;39343;-87
2023/09/02 08:15:27;;;;;;;5.55;2.67;;;;;;;25.04;49.42;100129.69;7737519;32;42215;-86
2023/09/02 08:19:43;;;;;;;3.60;1.98;;;;;;;25.30;47.74;100131.91;7737453;32;38878;-86
2023/09/02 08:23:59;;;;;;;5.03;2.53;;;;;;;25.29;49.00;100131.09;7737474;32;37609;-86
2023/09/02 08:28:16;;;;;;;6.82;2.22;;;;;;;24.90;49.16;100122.56;7737281;32;39501;-87
2023/09/02 08:32:32;;;;;;;2.30;1.62;;;;;;;25.48;47.99;100133.13;7737038;32;39770;-88
2023/09/02 08:36:49;;;;;;;6.28;2.15;;;;;;;25.29;47.00;100131.09;7736784;32;37913;-88
2023/09/02 08:41:05;;;;;;;2.35;1.73;;;;;;;25.98;46.59;100130.62;7736997;32;37014;-74
2023/09/02 08:45:24;;;;;;;3.35;1.67;;;;;;;25.96;45.96;100132.97;7735527;32;40076;-74
2023/09/02 08:49:40;;;;;;;2.47;1.80;;;;;;;25.59;45.39;100136.16;7736743;32;39124;-75
2023/09/02 08:53:58;;;;;;;2.47;1.50;;;;;;;26.33;44.79;100146.47;7735384;32;37956;-75
2023/09/02 08:58:15;;;;;;;2.58;1.40;;;;;;;25.51;45.58;100139.16;7736593;32;37628;-73
2023/09/02 09:02:32;;;;;;;3.05;1.73;;;;;;;26.54;43.56;100134.06;7735295;32;39201;-75
2023/09/02 09:06:49;;;;;;;2.95;1.80;;;;;;;25.75;45.60;100138.91;7736483;32;39928;-74
2023/09/02 09:11:07;;;;;;;3.83;1.73;;;;;;;26.15;44.58;100146.13;7736256;32;38639;-76
2023/09/02 09:15:23;;;;;;;2.25;1.45;;;;;;;26.45;43.23;100142.69;7734896;32;36835;-73
2023/09/02 09:19:40;;;;;;;5.25;1.73;;;;;;;26.14;44.45;100150.09;7737447;32;39324;-75
2023/09/02 09:23:56;;;;;;;2.05;1.60;;;;;;;26.45;44.42;100141.91;7738624;32;39811;-75
2023/09/02 09:28:13;;;;;;;6.72;1.90;;;;;;;27.22;42.71;100145.63;7739490;32;38799;-77
2023/09/02 09:32:29;;;;;;;5.80;1.85;;;;;;;27.30;42.67;100142.59;7739396;32;36863;-76
2023/09/02 09:36:56;;;;;;;8.85;2.08;;;;;;;26.91;42.32;100151.12;7739555;32;39484;-83
2023/09/02 09:41:12;;;;;;;4.90;2.10;;;;;;;27.00;42.31;100144.47;7738391;32;40843;-83
2023/09/02 09:45:29;;;;;;;4.32;1.90;;;;;;;26.96;42.07;100148.00;7739345;32;37913;-83
2023/09/02 09:49:49;;;;;;;2.58;1.42;;;;;;;27.80;41.03;100136.84;7739506;32;36952;-83
2023/09/02 09:54:06;;;;;;;3.28;1.70;;;;;;;27.12;40.34;100147.84;7739360;32;39973;-84
2023/09/02 09:58:23;;;;;;;4.70;1.73;;;;;;;27.54;39.52;100140.50;7739387;32;39667;-83
2023/09/02 10:02:39;;;;;;;2.95;1.15;;;;;;;27.86;38.88;100134.53;7739301;32;38887;-81
2023/09/02 10:07:03;;;;;;;3.08;1.55;;;;;;;28.30;37.68;100125.44;7739307;32;36499;-81
2023/09/02 10:11:23;;;;;;;2.87;1.65;;;;;;;28.76;36.13;100124.31;7739314;32;40057;-80
2023/09/02 10:15:39;;;;;;;3.30;1.65;;;;;;;28.83;36.67;100124.38;7739098;32;39975;-80
2023/09/02 10:19:56;;;;;;;6.72;1.50;;;;;;;28.63;37.28;100126.59;7737861;32;37692;-81
2023/09/02 10:24:13;;;;;;;2.42;1.45;;;;;;;29.10;35.94;100130.59;7738939;32;37032;-80
2023/09/02 10:28:34;;;;;;;3.92;1.40;;;;;;;28.89;36.93;100130.41;7739133;32;37234;-84
2023/09/02 10:32:54;;;;;;;5.22;1.65;;;;;;;29.29;37.44;100121.13;7737636;32;40014;-83
2023/09/02 10:37:13;;;;;;;2.80;1.95;;;;;;;29.83;35.29;100129.84;7737647;32;38738;-83
2023/09/02 10:41:30;;;;;;;2.22;1.42;;;;;;;29.62;35.54;100129.75;7737656;32;37184;-83
2023/09/02 10:45:47;;;;;;;1.95;1.50;;;;;;;29.71;35.48;100127.38;7738686;32;39803;-83
2023/09/02 10:50:04;;;;;;;1.90;1.50;;;;;;;29.98;35.01;100127.09;7738799;32;40842;-80
2023/09/02 10:54:20;;;;;;;2.12;1.37;;;;;;;30.00;34.35;100125.50;7738109;32;38041;-80
2023/09/02 10:58:47;;;;;;;5.20;1.75;;;;;;;29.93;35.07;100126.28;7738734;32;35655;-80
2023/09/02 11:03:06;;;;;;;2.08;1.50;;;;;;;29.95;35.03;100118.25;7738634;32;39250;-80
2023/09/02 11:07:25;;;;;;;3.30;1.80;;;;;;;29.84;34.58;100123.03;7738484;32;40917;-82
2023/09/02 11:12:07;;;;;;;2.97;1.55;;;;;;;29.86;35.08;100128.28;7738509;32;39466;-82
2023/09/02 11:16:23;;;;;;;2.03;1.50;;;;;;;29.76;34.96;100121.41;7738483;32;37629;-83
2023/09/02 11:20:49;;;;;;;4.53;2.08;;;;;;;30.18;35.13;100122.72;7738632;32;39504;-81
2023/09/02 11:25:06;;;;;;;5.60;1.90;;;;;;;30.88;33.08;100122.44;7738424;32;39844;-81
2023/09/02 11:29:24;;;;;;;1.92;1.40;;;;;;;30.94;33.58;100122.88;7736994;32;37893;-80
2023/09/02 11:33:45;;;;;;;1.92;1.48;;;;;;;31.45;32.84;100121.59;7738057;32;36970;-71
2023/09/02 11:38:03;;;;;;;6.07;1.87;;;;;;;31.75;32.14;100117.47;7738348;32;39181;-71
2023/09/02 11:42:19;;;;;;;6.47;1.50;;;;;;;32.23;32.12;100127.34;7737501;32;39916;-71
2023/09/02 11:46:39;;;;;;;1.98;1.65;;;;;;;32.59;31.37;100119.44;7737997;32;38080;-70
2023/09/02 11:50:59;;;;;;;3.60;1.70;;;;;;;32.53;30.39;100121.91;7738021;32;36950;-71
2023/09/02 11:55:17;;;;;;;5.95;1.75;;;;;;;32.18;29.88;100125.75;7737764;32;38966;-71
2023/09/02 11:59:36;;;;;;;4.78;1.65;;;;;;;31.92;31.11;100129.88;7741718;32;39973;-72
2023/09/02 12:03:54;;;;;;;2.40;1.45;;;;;;;31.83;31.81;100128.31;7744168;32;37876;-80
2023/09/02 12:08:11;;;;;;;2.65;1.60;;;;;;;32.16;30.55;100125.37;7737409;32;35996;-79
2023/09/02 12:12:27;;;;;;;2.33;1.42;;;;;;;31.63;31.85;100118.72;7748722;32;40047;-79
2023/09/02 12:16:45;;;;;;;3.03;1.60;;;;;;;31.81;31.89;100122.28;7741592;32;40949;-79
2023/09/02 12:21:02;;;;;;;4.15;1.60;;;;;;;32.67;30.75;100117.41;7737513;32;36985;-80
2023/09/02 12:25:21;;;;;;;2.62;1.60;;;;;;;32.11;31.06;100123.78;7737316;32;37667;-79
2023/09/02 12:29:37;;;;;;;4.40;1.60;;;;;;;32.32;30.57;100119.22;7737350;32;39071;-79
2023/09/02 12:33:54;;;;;;;2.42;1.40;;;;;;;31.36;31.13;100126.84;7736814;32;39778;-79
2023/09/02 12:38:11;;;;;;;2.80;1.45;;;;;;;32.27;30.13;100116.84;7741227;32;38649;-80
2023/09/02 12:42:30;;;;;;;2.87;1.30;;;;;;;32.37;30.20;100111.16;7740729;32;36995;-81
2023/09/02 12:47:01;;;;;;;1.87;1.50;;;;;;;33.00;29.24;100112.28;7761515;32;40206;-82
2023/09/02 12:51:30;;;;;;;2.80;1.83;;;;;;;32.73;28.68;100110.88;7763552;32;39743;-82
2023/09/02 12:55:47;;;;;;;1.42;1.25;;;;;;;32.40;28.67;100101.03;7765376;32;38845;-81
2023/09/02 13:00:05;;;;;;;3.70;1.58;;;;;;;32.60;27.92;100103.31;7767053;32;36950;-80
2023/09/02 13:04:24;;;;;;;3.22;1.35;;;;;;;33.23;28.95;100098.34;7766936;32;41033;-81
2023/09/02 13:08:44;;;;;;;2.33;1.30;;;;;;;33.33;27.42;100098.66;7753011;32;39931;-82
2023/09/02 13:13:01;;;;;;;1.95;1.40;;;;;;;32.61;28.13;100099.31;7742650;32;39041;-80
2023/09/02 13:17:19;;;;;;;3.62;1.65;;;;;;;32.34;29.14;100091.41;7739688;32;37645;-81
2023/09/02 13:21:37;;;;;;;3.33;1.35;;;;;;;32.09;29.89;100095.19;7747281;32;39332;-80
2023/09/02 13:25:54;;;;;;;2.92;1.58;;;;;;;31.60;30.17;100097.81;7760756;32;40008;-80
2023/09/02 13:30:10;;;;;;;7.65;1.77;;;;;;;31.74;30.04;100096.97;7739176;32;37733;-79
2023/09/02 13:34:32;;;;;;;3.95;1.45;;;;;;;31.10;31.23;100097.13;7745623;32;36914;-77
2023/09/02 13:38:48;;;;;;;1.42;1.30;;;;;;;31.83;30.26;100100.12;7750219;32;41039;-78
2023/09/02 13:43:19;;;;;;;2.12;1.30;;;;;;;32.21;29.86;100082.62;7747040;32;39685;-78
2023/09/02 13:47:36;;;;;;;2.37;1.25;;;;;;;31.92;29.79;100084.78;7738202;32;37775;-79
2023/09/02 13:51:52;;;;;;;5.93;1.77;;;;;;;31.55;30.82;100080.53;7757920;32;36743;-79
2023/09/02 13:56:10;;;;;;;2.25;1.40;;;;;;;31.80;30.19;100086.06;7758635;32;39283;-79
2023/09/02 14:00:37;;;;;;;3.05;1.50;;;;;;;32.44;28.33;100069.97;7739758;32;40513;-77
2023/09/02 14:04:55;;;;;;;2.05;1.37;;;;;;;31.98;28.42;100075.50;7736194;32;37703;-77
2023/09/02 14:09:26;;;;;;;1.98;1.42;;;;;;;32.59;27.48;100070.69;7757387;32;37489;-78
2023/09/02 14:13:42;;;;;;;1.12;1.02;;;;;;;32.84;28.36;100051.53;7744905;32;39796;-78
2023/09/02 14:17:58;;;;;;;2.10;1.75;;;;;;;32.68;26.86;100068.19;7756142;32;39971;-81
2023/09/02 14:22:14;;;;;;;3.87;1.33;;;;;;;32.13;28.24;100067.78;7756012;32;37922;-79
2023/09/02 14:26:31;;;;;;;3.37;1.62;;;;;;;32.42;27.59;100061.13;7738802;32;36915;-79
2023/09/02 14:30:48;;;;;;;2.80;1.60;;;;;;;33.03;27.40;100063.41;7750274;32;39179;-79
2023/09/02 14:35:05;;;;;;;3.37;1.45;;;;;;;32.77;27.58;100067.72;7748020;32;39888;-79
2023/09/02 14:39:21;;;;;;;6.32;1.50;;;;;;;32.73;27.11;100062.09;7741745;32;38723;-79
2023/09/02 14:43:37;;;;;;;2.05;1.25;;;;;;;32.61;28.25;100052.12;7744312;32;36940;-78
2023/09/02 14:47:54;;;;;;;2.62;1.73;;;;;;;32.72;27.09;100075.41;7750691;32;39674;-78
2023/09/02 14:52:10;;;;;;;1.48;1.20;;;;;;;32.27;27.71;100068.88;7741375;32;40863;-78
2023/09/02 14:56:28;;;;;;;6.80;1.50;;;;;;;31.97;28.22;100085.16;7764846;32;36384;-79
2023/09/02 15:00:46;;;;;;;1.98;1.20;;;;;;;32.17;28.00;100073.41;7748470;32;37632;-78
2023/09/02 15:05:13;;;;;;;2.62;1.42;;;;;;;32.28;27.81;100067.69;7758962;32;38857;-81
2023/09/02 15:09:31;;;;;;;1.73;1.10;;;;;;;32.32;28.44;100068.44;7747983;32;40508;-79
2023/09/02 15:13:47;;;;;;;1.83;1.50;;;;;;;31.47;29.08;100076.09;7761186;32;38012;-78
2023/09/02 15:18:10;;;;;;;4.30;1.75;;;;;;;31.70;28.88;100076.47;7763528;32;36923;-79
2023/09/02 15:22:27;;;;;;;3.08;1.23;;;;;;;31.78;28.28;100061.09;7758757;32;39944;-80
2023/09/02 15:26:44;;;;;;;1.83;1.25;;;;;;;32.56;25.50;100056.19;7738434;32;40569;-79
2023/09/02 15:31:03;;;;;;;3.75;1.30;;;;;;;32.84;25.55;100064.81;7736490;32;38610;-79
2023/09/02 15:35:19;;;;;;;2.28;1.20;;;;;;;32.78;24.77;100067.28;7737461;32;35555;-79
2023/09/02 15:39:36;;;;;;;5.53;1.48;;;;;;;32.96;25.24;100066.31;7737971;32;39988;-79
2023/09/02 15:43:55;;;;;;;3.58;1.35;;;;;;;32.74;25.83;100077.84;7737139;32;39588;-79
2023/09/02 15:48:11;;;;;;;2.67;1.30;;;;;;;32.23;25.70;100070.94;7737381;32;38005;-82
2023/09/02 15:52:27;;;;;;;4.53;1.40;;;;;;;32.21;25.65;100084.66;7737644;32;37708;-78
2023/09/02 15:56:43;;;;;;;2.33;1.33;;;;;;;32.43;26.59;100088.94;7737547;32;39199;-79
2023/09/02 16:01:00;;;;;;;4.95;1.50;;;;;;;32.56;25.36;100090.03;7737243;32;40599;-79
2023/09/02 16:05:16;;;;;;;3.90;1.40;;;;;;;32.26;26.09;100096.31;7746335;32;37837;-80
2023/09/02 16:09:32;;;;;;;4.65;1.45;;;;;;;32.37;26.67;100099.03;7736455;32;36869;-86
2023/09/02 16:13:49;;;;;;;3.22;1.58;;;;;;;32.33;26.14;100095.44;7737637;32;39418;-82
2023/09/02 16:18:05;;;;;;;4.90;1.40;;;;;;;31.39;27.52;100109.13;7737547;32;40767;-83
2023/09/02 16:22:22;;;;;;;3.87;1.73;;;;;;;31.65;28.30;100110.69;7737320;32;37986;-83
2023/09/02 16:26:38;;;;;;;12.18;2.08;;;;;;;31.66;28.34;100106.66;7737419;32;36646;-83
2023/09/02 16:30:54;;;;;;;4.22;1.75;;;;;;;32.01;28.66;100099.22;7737250;32;39318;-83
2023/09/02 16:35:15;;;;;;;4.70;1.60;;;;;;;31.95;28.61;100112.16;7736761;32;40869;-80
2023/09/02 16:39:31;;;;;;;9.57;1.67;;;;;;;31.88;28.53;100112.22;7736051;32;38800;-81
2023/09/02 16:43:47;;;;;;;13.88;1.50;;;;;;;31.37;29.16;100111.53;7736128;32;37691;-80
2023/09/02 16:48:19;;;;;;;3.12;1.40;;;;;;;31.35;29.43;100114.75;7736787;32;38913;-79
2023/09/02 16:52:43;;;;;;;5.62;1.40;;;;;;;31.33;30.60;100114.38;7735598;32;40051;-80
2023/09/02 16:57:00;;;;;;;4.12;1.45;;;;;;;31.10;30.08;100114.81;7736484;32;38456;-79
2023/09/02 17:01:21;;;;;;;4.07;1.73;;;;;;;30.88;31.23;100116.81;7736477;32;37211;-79
2023/09/02 17:05:41;;;;;;;9.07;1.87;;;;;;;30.53;32.43;100112.81;7736547;32;40109;-79
2023/09/02 17:09:57;;;;;;;6.25;1.62;;;;;;;30.15;32.76;100112.31;7735097;32;40768;-78
2023/09/02 17:14:14;;;;;;;5.90;1.83;;;;;;;29.91;32.74;100117.44;7736186;32;38472;-73
2023/09/02 17:18:31;;;;;;;3.08;1.52;;;;;;;29.58;33.60;100124.91;7736002;32;37809;-73
2023/09/02 17:22:48;;;;;;;5.22;1.60;;;;;;;29.41;33.52;100128.41;7736068;32;39309;-75
2023/09/02 17:27:04;;;;;;;12.15;2.50;;;;;;;29.29;33.17;100132.34;7735960;32;40519;-75
2023/09/02 17:31:36;;;;;;;5.00;1.67;;;;;;;29.05;34.18;100144.19;7735489;32;38774;-75
2023/09/02 17:35:52;;;;;;;8.35;1.92;;;;;;;28.53;35.18;100146.88;7735336;32;37370;-84
2023/09/02 17:40:10;;;;;;;8.55;2.45;;;;;;;28.39;35.92;100150.34;7736675;32;39235;-81
2023/09/02 17:44:26;;;;;;;5.97;2.30;;;;;;;28.31;35.73;100155.09;7739232;32;41254;-84
2023/09/02 17:48:42;;;;;;;7.45;2.00;;;;;;;28.01;36.97;100155.97;7738629;32;37816;-81
2023/09/02 17:52:58;;;;;;;3.28;1.87;;;;;;;27.63;38.10;100171.84;7739176;32;37003;-84
2023/09/02 17:57:15;;;;;;;3.87;2.05;;;;;;;27.62;37.94;100175.03;7739524;32;39237;-85
2023/09/02 18:01:31;;;;;;;4.30;2.22;;;;;;;27.27;38.95;100176.88;7738674;32;40765;-84
2023/09/02 18:05:47;;;;;;;9.10;2.50;;;;;;;27.27;38.54;100173.25;7739299;32;37922;-85
2023/09/02 18:10:12;;;;;;;6.03;2.70;;;;;;;27.17;39.04;100185.91;7739326;32;37605;-86
2023/09/02 18:14:28;;;;;;;4.82;2.20;;;;;;;27.02;39.54;100193.25;7738226;32;38972;-86
2023/09/02 18:18:45;;;;;;;2.22;1.80;;;;;;;26.72;40.51;100201.53;7745896;32;39705;-86
2023/09/02 18:23:01;;;;;;;11.43;2.17;;;;;;;26.73;40.47;100198.38;7765934;32;38735;-86
2023/09/02 18:27:17;;;;;;;2.65;1.55;;;;;;;26.48;41.01;100195.06;7750691;32;37033;-86
2023/09/02 18:31:34;;;;;;;2.67;1.50;;;;;;;26.22;41.25;100193.78;7740274;32;39750;-85
2023/09/02 18:35:50;;;;;;;2.30;1.40;;;;;;;26.06;40.97;100187.47;7742000;32;40875;-85
2023/09/02 18:40:07;;;;;;;6.37;1.55;;;;;;;25.98;41.16;100191.28;7765993;32;38656;-84
2023/09/02 18:44:24;;;;;;;2.30;1.35;;;;;;;25.79;41.65;100206.00;7753294;32;37094;-85
2023/09/02 18:48:42;;;;;;;3.58;1.58;;;;;;;25.80;41.50;100205.63;7740256;32;38219;-85
2023/09/02 18:52:59;;;;;;;3.33;1.30;;;;;;;25.44;42.58;100213.19;7765635;32;39994;-85
2023/09/02 18:57:15;;;;;;;3.28;1.70;;;;;;;25.42;42.62;100214.72;7766810;32;38990;-84
2023/09/02 19:01:32;;;;;;;1.80;1.30;;;;;;;25.29;42.98;100216.81;7782275;32;37477;-85
2023/09/02 19:05:50;;;;;;;3.05;1.67;;;;;;;25.21;43.17;100217.75;7765452;32;39751;-84
2023/09/02 19:10:09;;;;;;;5.93;2.08;;;;;;;25.21;42.82;100224.13;7765399;32;39088;-83
2023/09/02 19:14:25;;;;;;;5.53;1.80;;;;;;;25.25;42.62;100227.03;7764196;32;36879;-85
2023/09/02 19:18:42;;;;;;;3.92;1.95;;;;;;;25.07;43.24;100241.34;7765376;32;36597;-85
2023/09/02 19:22:59;;;;;;;3.00;1.60;;;;;;;24.93;43.81;100249.34;7756828;32;39065;-84
2023/09/02 19:27:15;;;;;;;3.62;1.92;;;;;;;24.87;44.15;100234.84;7738234;32;40027;-85
2023/09/02 19:31:32;;;;;;;3.10;2.03;;;;;;;24.65;45.07;100233.47;7738230;32;37933;-86
2023/09/02 19:35:48;;;;;;;2.62;1.50;;;;;;;24.57;45.48;100231.62;7738880;32;36922;-86
2023/09/02 19:40:05;;;;;;;2.83;1.58;;;;;;;24.52;45.24;100234.66;7738100;32;39398;-84
2023/09/02 19:44:21;;;;;;;3.75;1.60;;;;;;;24.21;46.12;100241.72;7737921;32;40100;-84
2023/09/02 19:48:42;;;;;;;2.85;1.52;;;;;;;24.24;45.93;100243.81;7738692;32;38023;-84
2023/09/02 19:53:00;;;;;;;2.47;1.50;;;;;;;24.00;46.46;100239.12;7737908;32;37707;-84
2023/09/02 19:57:16;;;;;;;4.82;1.55;;;;;;;23.99;46.50;100246.69;7737909;32;39724;-84
2023/09/02 20:01:35;;;;;;;2.70;1.60;;;;;;;23.97;46.43;100249.00;7737808;32;40810;-84
2023/09/02 20:05:52;;;;;;;2.60;1.87;;;;;;;23.86;46.80;100259.00;7737072;32;37781;-84
2023/09/02 20:10:12;;;;;;;8.18;2.03;;;;;;;23.83;47.08;100253.31;7737830;32;36593;-89